Latest Coastal Weather Observations for Barrow Island

IDW60701

Issued at 6:02 pm WST Tuesday 30 June 2015 (issued every 10 minutes, with the page automatically refreshed every 10 minutes)

About coastal observations | Map of coastal stations | Coastal observations for WA | Marine services | Other Formats
Station Details ID: 005094 Name: BARROW ISLAND AIRPORT Lat: -20.88 Lon: 115.41 Height: 6.4 m
Data from the previous 72 hours. | See also: Recent months at Barrow Island
Date/Time
WST
Temp

°C
Wind Pressure Rain
since 9am
mm
Weather Cloud Vis
km
Sea
Height
m
Swell
Dir
 
Speed
knots
Gust
knots
hPa Trend Height
m
Period
s
Dir
30/06:00pm 20.3 NNE 7 8 1020.0 - 0.0 - - - - - - -
30/05:30pm 22.3 NNE 8 9 1019.8 - 0.0 - - - - - - -
30/05:00pm 22.9 NE 9 10 1019.7 - 0.0 - - - - - - -
30/04:30pm 23.2 NE 10 11 1019.4 - 0.0 - - - - - - -
30/04:00pm 23.6 NE 12 13 1019.5 - 0.0 - - - - - - -
30/03:30pm 24.1 NE 13 16 1019.5 - 0.0 - - - - - - -
30/03:00pm 24.1 NE 15 17 1019.5 - 0.0 - - - - - - -
30/02:30pm 23.8 NE 15 17 1019.6 - 0.0 - - - - - - -
30/02:00pm 23.7 NE 15 17 1020.1 - 0.0 - - - - - - -
30/01:30pm 23.4 ENE 16 18 1020.3 - 0.0 - - - - - - -
30/01:00pm 23.2 ENE 16 18 1020.9 - 0.0 - - - - - - -
30/12:30pm 23.3 ENE 17 19 1021.4 - 0.0 - - - - - - -
30/12:00pm 23.1 ENE 17 19 1021.7 - 0.0 - - - - - - -
30/11:30am 22.9 ENE 18 21 1022.0 - 0.0 - - - - - - -
30/11:00am 22.6 ENE 17 20 1022.4 - 0.0 - - - - - - -
30/10:30am 22.4 E 18 21 1022.6 - 0.0 - - - - - - -
30/10:00am 22.3 E 18 21 1022.7 - 0.0 - - - - - - -
30/09:30am 22.3 E 18 23 1022.8 - 0.0 - - - - - - -
30/09:00am 22.1 E 18 22 1022.7 - 0.0 - - - - - - -
30/08:30am 21.9 E 19 23 1022.4 - 0.0 - - - - - - -
30/08:00am 21.5 ENE 19 22 1022.1 - 0.0 - - - - - - -
30/07:30am 21.2 E 18 21 1021.8 - 0.0 - - - - - - -
30/07:00am 21.0 E 18 21 1021.3 - 0.0 - - - - - - -
30/06:30am 21.2 E 15 17 1021.0 - 0.0 - - - - - - -
30/06:00am 20.5 ESE 14 17 1020.7 - 0.0 - - - - - - -
30/05:30am 20.5 ESE 14 17 1020.6 - 0.0 - - - - - - -
30/05:00am 20.2 ESE 15 17 1020.4 - 0.0 - - - - - - -
30/04:30am 20.3 ESE 13 15 1020.3 - 0.0 - - - - - - -
30/04:00am 20.5 SE 10 12 1020.1 - 0.0 - - - - - - -
30/03:30am 20.3 SE 9 10 1019.9 - 0.0 - - - - - - -
30/03:00am 19.9 SSE 8 8 1020.1 - 0.0 - - - - - - -
30/02:30am 19.2 SSE 6 7 1020.3 - 0.0 - - - - - - -
30/02:00am 17.7 S 4 5 1020.5 - 0.0 - - - - - - -
30/01:30am 17.3 SW 3 4 1020.8 - 0.0 - - - - - - -
30/01:00am 16.3 WSW 3 4 1021.0 - 0.0 - - - - - - -
30/12:30am 16.0 CALM 0 0 1021.2 - 0.0 - - - - - - -
30/12:00am 16.3 CALM 0 0 1021.3 - 0.0 - - - - - - -
 
Date/Time
WST
Temp

°C
Wind Pressure Rain
since 9am
mm
Weather Cloud Vis
km
Sea
Height
m
Swell
Dir
 
Speed
knots
Gust
knots
hPa Trend Height
m
Period
s
Dir
29/11:30pm 15.7 CALM 0 0 1021.4 - 0.0 - - - - - - -
29/11:00pm 16.5 CALM 0 0 1021.6 - 0.0 - - - - - - -
29/10:30pm 16.6 W 3 4 1021.6 - 0.0 - - - - - - -
29/10:00pm 17.4 W 4 5 1021.6 - 0.0 - - - - - - -
29/09:30pm 17.0 W 5 6 1021.5 - 0.0 - - - - - - -
29/09:00pm 17.2 W 5 6 1021.4 - 0.0 - - - - - - -
29/08:30pm 16.3 NNW 4 5 1021.3 - 0.0 - - - - - - -
29/08:00pm 17.5 N 3 5 1021.0 - 0.0 - - - - - - -
29/07:30pm 17.5 NNW 4 5 1020.8 - 0.0 - - - - - - -
29/07:00pm 17.9 NW 5 6 1020.6 - 0.0 - - - - - - -
29/06:30pm 19.2 NNW 5 6 1020.4 - 0.0 - - - - - - -
29/06:00pm 19.9 N 6 7 1020.2 - 0.0 - - - - - - -
29/05:30pm 22.2 N 8 10 1020.0 - 0.0 - - - - - - -
29/05:00pm 23.2 NNE 12 13 1019.9 - 0.0 - - - - - - -
29/04:30pm 23.7 NNE 12 14 1019.7 - 0.0 - - - - - - -
29/04:00pm 23.8 NNE 14 16 1019.7 - 0.0 - - - - - - -
29/03:30pm 23.8 NE 14 16 1019.9 - 0.0 - - - - - - -
29/03:00pm 24.1 NE 14 16 1020.2 - 0.0 - - - - - - -
29/02:30pm 24.0 NE 13 16 1020.5 - 0.0 - - - - - - -
29/02:00pm 24.0 ENE 14 16 1020.8 - 0.0 - - - - - - -
29/01:30pm 23.7 ENE 14 16 1021.1 - 0.0 - - - - - - -
29/01:00pm 23.7 ENE 16 18 1021.5 - 0.0 - - - - - - -
29/12:30pm 23.4 ENE 18 20 1022.0 - 0.0 - - - - - - -
29/12:00pm 23.3 ENE 16 20 1022.6 - 0.0 - - - - - - -
29/11:30am 23.1 ENE 17 20 1023.0 - 0.0 - - - - - - -
29/11:00am 22.8 ENE 16 19 1023.2 - 0.0 - - - - - - -
29/10:30am 22.8 E 16 18 1023.6 - 0.0 - - - - - - -
29/10:00am 22.7 E 15 17 1023.7 - 0.0 - - - - - - -
29/09:30am 22.6 E 15 18 1023.7 - 0.0 - - - - - - -
29/09:00am 22.4 E 12 15 1023.6 - 0.0 - - - - - - -
29/08:30am 21.7 SE 9 11 1023.2 - 0.0 - - - - - - -
29/08:00am 20.7 SE 8 9 1022.8 - 0.0 - - - - - - -
29/07:30am 19.7 SE 7 8 1022.3 - 0.0 - - - - - - -
29/07:00am 19.4 ESE 7 8 1022.0 - 0.0 - - - - - - -
29/06:30am 19.6 ESE 6 8 1021.8 - 0.0 - - - - - - -
29/06:00am 19.9 ESE 8 9 1021.6 - 0.0 - - - - - - -
29/05:30am 19.4 ESE 7 7 1021.4 - 0.0 - - - - - - -
29/05:00am 17.5 SE 2 4 1021.3 - 0.0 - - - - - - -
29/04:30am 16.0 CALM 0 0 1021.3 - 0.0 - - - - - - -
29/04:00am 15.1 CALM 0 0 1021.2 - 0.0 - - - - - - -
29/03:30am 16.1 CALM 0 0 1021.1 - 0.0 - - - - - - -
29/03:00am 15.9 CALM 0 0 1021.2 - 0.0 - - - - - - -
29/02:30am 15.7 S 1 3 1021.4 - 0.0 - - - - - - -
29/02:00am 16.8 SW 2 4 1021.7 - 0.0 - - - - - - -
29/01:30am 16.1 SW 1 3 1022.0 - 0.0 - - - - - - -
29/01:00am 16.4 CALM 0 0 1022.3 - 0.0 - - - - - - -
29/12:30am 16.3 SW 2 3 1022.4 - 0.0 - - - - - - -
29/12:00am 17.0 SW 2 3 1022.5 - 0.0 - - - - - - -
 
Date/Time
WST
Temp

°C
Wind Pressure Rain
since 9am
mm
Weather Cloud Vis
km
Sea
Height
m
Swell
Dir
 
Speed
knots
Gust
knots
hPa Trend Height
m
Period
s
Dir
28/11:30pm 16.7 SW 3 3 1022.8 - 0.0 - - - - - - -
28/11:00pm 16.5 SW 3 4 1022.9 - 0.0 - - - - - - -
28/10:30pm 16.3 CALM 0 0 1022.9 - 0.0 - - - - - - -
28/10:00pm 17.6 CALM 0 0 1022.8 - 0.0 - - - - - - -
28/09:30pm 17.6 NNW 3 4 1022.8 - 0.0 - - - - - - -
28/09:00pm 17.9 NNW 3 3 1022.6 - 0.0 - - - - - - -
28/08:30pm 17.7 N 3 4 1022.5 - 0.0 - - - - - - -
28/08:00pm 17.8 N 4 5 1022.2 - 0.0 - - - - - - -
28/07:30pm 18.4 N 4 5 1022.0 - 0.0 - - - - - - -
28/07:00pm 18.6 N 5 5 1021.8 - 0.0 - - - - - - -
28/06:30pm 19.4 N 5 6 1021.4 - 0.0 - - - - - - -
28/06:00pm 20.7 NNE 7 7 1021.2 - 0.0 - - - - - - -
28/05:30pm 22.5 NNE 9 10 1020.9 - 0.0 - - - - - - -
28/05:00pm 23.2 NNE 10 12 1020.6 - 0.0 - - - - - - -
28/04:30pm 23.6 NNE 11 13 1020.5 - 0.0 - - - - - - -
28/04:00pm 23.5 NE 12 14 1020.4 - 0.0 - - - - - - -
28/03:30pm 23.8 NE 14 16 1020.5 - 0.0 - - - - - - -
28/03:00pm 23.9 NE 13 15 1020.5 - 0.0 - - - - - - -
28/02:30pm 24.0 NE 13 16 1020.8 - 0.0 - - - - - - -
28/02:00pm 23.8 ENE 13 16 1021.1 - 0.0 - - - - - - -
28/01:30pm 23.7 ENE 14 16 1021.4 - 0.0 - - - - - - -
28/01:00pm 23.6 ENE 15 17 1021.7 - 0.0 - - - - - - -
28/12:30pm 23.3 ENE 17 19 1022.1 - 0.0 - - - - - - -
28/12:00pm 23.3 ENE 16 18 1022.4 - 0.0 - - - - - - -
28/11:30am 23.1 ENE 16 19 1022.7 - 0.0 - - - - - - -
28/11:00am 22.8 E 15 18 1023.0 - 0.0 - - - - - - -
28/10:30am 22.5 E 12 14 1023.3 - 0.0 - - - - - - -
28/10:00am 22.3 E 12 14 1023.5 - 0.0 - - - - - - -
28/09:30am 22.2 E 12 15 1023.6 - 0.0 - - - - - - -
28/09:00am 22.0 E 13 16 1023.4 - 0.0 - - - - - - -
28/08:30am 22.0 ESE 13 15 1023.3 - 0.0 - - - - - - -
28/08:00am 21.8 ESE 15 17 1023.0 - 0.0 - - - - - - -
28/07:30am 21.2 SE 15 16 1022.9 - 0.0 - - - - - - -
28/07:00am 20.7 SE 14 16 1022.6 - 0.0 - - - - - - -
28/06:30am 21.0 SE 13 15 1022.3 - 0.0 - - - - - - -
28/06:00am 20.4 SE 12 13 1022.1 - 0.0 - - - - - - -
28/05:30am 20.4 SE 12 13 1021.9 - 0.0 - - - - - - -
28/05:00am 20.3 SSE 10 11 1021.8 - 0.0 - - - - - - -
28/04:30am 20.2 SSE 9 11 1021.7 - 0.0 - - - - - - -
28/04:00am 20.8 SSE 9 11 1021.7 - 0.0 - - - - - - -
28/03:30am 20.4 S 9 10 1021.7 - 0.0 - - - - - - -
28/03:00am 20.5 S 10 11 1021.8 - 0.0 - - - - - - -
28/02:30am 19.7 S 8 9 1021.9 - 0.0 - - - - - - -
28/02:00am 16.1 SSW 7 7 1022.2 - 0.0 - - - - - - -
28/01:30am 15.9 SW 5 6 1022.1 - 0.0 - - - - - - -
28/01:00am 16.5 CALM 0 0 1022.0 - 0.0 - - - - - - -
28/12:30am 16.8 SW 3 3 1022.0 - 0.0 - - - - - - -
28/12:00am 16.5 SW 3 4 1022.0 - 0.0 - - - - - - -
 
Date/Time
WST
Temp

°C
Wind Pressure Rain
since 9am
mm
Weather Cloud Vis
km
Sea
Height
m
Swell
Dir
 
Speed
knots
Gust
knots
hPa Trend Height
m
Period
s
Dir
27/11:30pm 16.6 SSW 4 5 1022.3 - 0.0 - - - - - - -
27/11:00pm 17.9 SSW 4 5 1022.5 - 0.0 - - - - - - -
27/10:30pm 17.5 WSW 3 5 1022.6 - 0.0 - - - - - - -
27/10:00pm 17.5 CALM 0 0 1022.6 - 0.0 - - - - - - -
27/09:30pm 17.1 CALM 0 0 1022.4 - 0.0 - - - - - - -
27/09:00pm 17.0 NNW 4 5 1022.3 - 0.0 - - - - - - -
27/08:30pm 17.4 NNW 5 6 1022.1 - 0.0 - - - - - - -
27/08:00pm 16.9 N 6 7 1021.9 - 0.0 - - - - - - -
27/07:30pm 16.8 N 6 7 1021.6 - 0.0 - - - - - - -
27/07:00pm 18.6 N 7 8 1021.3 - 0.0 - - - - - - -
27/06:30pm 19.4 N 8 9 1021.1 - 0.0 - - - - - - -

Other Formats:

Comma delimited format used in spreadsheet applications
http://www.bom.gov.au/fwo/IDW60701/IDW60701.95304.axf

JavaScript Object Notation format (JSON) in row-major order
http://www.bom.gov.au/fwo/IDW60701/IDW60701.95304.json